Carytown, Missouri
Current Conditions -  °F | °C
As of 7:53 AM on Saturday 25 Oct 2014 (Local Time) from KJLN Reporting Station
Clear Clear  
Wind Chill: 61°   Ceiling: Unl
Heat Index: 61°   Visibility: 7mi
Dew Point: 58°   Wind: 6mph
Humidity: 90%   Direction: 200°SSW
Pressure: 30.08"   Gusts: NA
Location:  37.1542°N, 94.2882°W
Report Text: KJLN 251253Z 20005KT 7SM CLR 16/14 A3008 RMK AO2 SLP180 T01610144
Loading
Personal Weather Stations






























Interactive Weather Map
Tropical Storm Tracking
New forecast layout! Learn more

10-Day Weather Forecast

Advertisements
Track Severe Weather on mobile